• Join FlightAware (Why Join?)
  • Login
  • US Flag 
07:06PM EDT


 

Airport Tracker/Info


-or-


 

Live Flight TrackerFlight Track Log ✈ ASQ5678 ✈ 29-Jun-2013 ✈ KMKE - KCLE

Flight Track Log - Related Links

Times and Time Zones

All times are in EDT time to prevent confusion due to time zone crossing. See the ASQ5678 flight status page for this flight to view local times or setup timezone preferences in your user account.

Time Position Orientation Groundspeed Altitude Reporting Facility
EDT Latitude Longitude Course Direction KTS MPH feet Rate Location/Type
01:31PM 42.9667 -87.9000 66° East 147 169 1,500  Level KMKE
01:32PM 42.9833 -87.8333 71° East 216 249 3,600 1,980 Climbing KMKE
01:33PM 42.9858 -87.7236 88° East 253 291 6,300 2,220 Climbing Chicago Center
01:34PM 42.8544 -87.4849 98° East  Level Estimated
01:34PM 42.9858 -87.6225 90° East 266 306 8,700  Level Chicago Center
01:35PM 42.8310 -87.3821 90° East  Level Estimated
01:35PM 42.9883 -87.5131 88° East 286 329 10,900  Level Chicago Center
01:36PM 42.8629 -87.2836 66° East  Level FlightAware Approximate
01:36PM 42.9814 -87.3956 95° East 319 367 11,900  Level Chicago Center
01:37PM 42.9683 -87.2667 98° East 355 409 12,500 780 Climbing Chicago Center
01:38PM 42.9550 -87.1233 97° East 379 436 13,500 1,020 Climbing Chicago Center
01:39PM 42.9381 -86.9494 98° East 386 444 14,700 1,080 Climbing Chicago Center
01:40PM 42.9242 -86.8039 97° East 390 449 15,800 1,020 Climbing Chicago Center
01:41PM 42.9089 -86.6558 98° East 393 452 16,800 960 Climbing Chicago Center
01:42PM 42.8947 -86.5083 97° East 395 455 17,800 1,020 Climbing Chicago Center
01:44PM 42.8775 -86.3592 99° East 402 463 19,000 1,200 Climbing Chicago Center
01:45PM 42.8492 -86.1800 102° East 408 470 20,300 1,080 Climbing Chicago Center
01:46PM 42.8253 -86.0289 102° East 415 478 21,300 960 Climbing Chicago Center
01:47PM 42.8006 -85.8767 102° East 419 482 22,300 960 Climbing Chicago Center
01:48PM 42.7764 -85.7247 102° East 417 480 23,300 960 Climbing Chicago Center
01:49PM 42.7517 -85.5711 102° East 418 481 24,300 780 Climbing Chicago Center
01:50PM 42.7214 -85.3878 103° East 418 481 25,000 300 Climbing Chicago Center
01:51PM 42.6944 -85.2275 103° East 431 496 25,000  Level Chicago Center
01:52PM 42.6672 -85.0619 103° East 447 514 25,000  Level Chicago Center
01:53PM 42.6392 -84.8944 103° East 456 525 25,000  Level Chicago Center
01:54PM 42.6106 -84.7256 103° East 460 529 25,000  Level Chicago Center
01:55PM 42.5656 -84.5639 111° Southeast 459 528 25,000  Level Chicago Center
01:56PM 42.5200 -84.4053 111° Southeast 455 524 25,000  Level Chicago Center
01:56PM 42.4925 -84.2836 107° East 456 525 25,000  Level Cleveland Center
01:57PM 42.4622 -84.1156 104° East 456 525 25,000  Level Cleveland Center
01:58PM 42.4336 -83.9536 103° East 451 519 25,000  Level Cleveland Center
01:59PM 42.4053 -83.7861 103° East 451 519 25,000  Level Cleveland Center
02:00PM 42.3678 -83.6242 107° East 451 519 25,000 -120 Level Cleveland Center
02:01PM 42.3133 -83.4697 115° Southeast 451 519 24,800 -600 Descending Cleveland Center
02:02PM 42.2586 -83.3242 117° Southeast 445 512 23,900 -900 Descending Cleveland Center
02:03PM 42.2117 -83.1931 116° Southeast 430 495 23,000 -900 Descending Cleveland Center
02:04PM 42.1606 -83.0483 115° Southeast 430 495 22,100 -960 Descending Cleveland Center
02:05PM 42.1075 -82.9033 116° Southeast 430 495 21,100 -1,800 Descending Cleveland Center
02:06PM 42.0558 -82.7644 117° Southeast 430 495 18,500 -3,000 Descending Cleveland Center
02:07PM 42.0103 -82.6372 116° Southeast 407 468 15,200 -2,820 Descending Cleveland Center
02:08PM 41.9644 -82.5183 117° Southeast 376 433 12,900 -2,160 Descending Cleveland Center
02:09PM 41.9186 -82.3914 116° Southeast 369 425 10,900 -1,860 Descending Cleveland Center
02:10PM 41.8886 -82.3153 118° Southeast 377 434 10,100 -600 Descending Cleveland Center
02:11PM 41.8422 -82.1914 117° Southeast 362 417 10,000 -60 Descending Cleveland Center
02:12PM 41.7478 -82.0917 142° Southeast 371 427 10,000  Level Cleveland Center
02:13PM 41.6611 -82.0172 147° Southeast 369 425 10,000 -240 Level Cleveland Center
02:14PM 41.5767 -81.9378 145° Southeast 283 326 9,600 -1,080 Descending Cleveland Center
02:15PM 41.5208 -81.8978 152° Southeast 275 316 7,900 -1,500 Descending Cleveland Center
02:16PM 41.4600 -81.9325 203° Southwest 255 293 6,900 -1,440 Descending Cleveland Center
02:17PM 41.4031 -81.9839 214° Southwest 225 259 5,200 -1,440 Descending Cleveland Center
02:18PM 41.3669 -82.0522 235° Southwest 242 278 4,000 -720 Descending Cleveland Center
02:19PM 41.3222 -82.1067 222° Southwest 228 262 3,800 -240 Descending Cleveland Center